createdAt,value
2022-09-16T00:01:01.062Z,99.90
2022-09-16T00:03:47.220Z,99.90
2022-09-16T00:06:26.985Z,99.90
2022-09-16T00:08:57.411Z,99.90
2022-09-16T00:11:27.254Z,99.90
2022-09-16T00:13:57.142Z,99.90
2022-09-16T00:16:27.247Z,99.90
2022-09-16T00:18:59.451Z,99.90
2022-09-16T00:21:28.790Z,99.90
2022-09-16T00:23:56.623Z,99.90
2022-09-16T00:26:24.091Z,99.90
2022-09-16T00:28:51.429Z,99.90
2022-09-16T00:31:18.677Z,99.90
2022-09-16T00:33:45.720Z,99.90
2022-09-16T00:36:18.740Z,99.90
2022-09-16T00:38:45.837Z,99.90
2022-09-16T00:41:20.971Z,99.90
2022-09-16T00:43:58.665Z,99.90
2022-09-16T00:46:40.187Z,99.90
2022-09-16T00:49:20.952Z,99.90
2022-09-16T00:51:50.983Z,99.90
2022-09-16T00:54:19.494Z,99.90
2022-09-16T00:56:51.110Z,99.90
2022-09-16T00:59:31.589Z,99.90
2022-09-16T01:02:05.639Z,99.90
2022-09-16T01:04:38.661Z,99.90
2022-09-16T01:07:06.021Z,99.90
2022-09-16T01:09:35.985Z,99.90
2022-09-16T01:12:03.115Z,99.90
2022-09-16T01:14:30.587Z,99.90
2022-09-16T01:17:25.464Z,99.90
2022-09-16T01:20:23.520Z,99.90
2022-09-16T01:23:25.884Z,99.90
2022-09-16T01:26:17.823Z,99.90
2022-09-16T01:28:53.723Z,99.90
2022-09-16T01:31:24.543Z,99.90
2022-09-16T01:34:10.936Z,99.90
2022-09-16T01:37:25.423Z,99.90
2022-09-16T01:39:55.638Z,99.90
2022-09-16T01:42:37.300Z,99.90
2022-09-16T01:45:13.539Z,99.90
2022-09-16T01:48:13.809Z,99.90
2022-09-16T01:50:56.738Z,99.90
2022-09-16T01:53:32.565Z,99.90
2022-09-16T01:56:08.701Z,99.90
2022-09-16T01:58:48.935Z,99.90
2022-09-16T02:01:45.270Z,99.90
2022-09-16T02:04:22.130Z,99.90
2022-09-16T02:06:52.059Z,99.90
2022-09-16T02:09:23.759Z,99.90
2022-09-16T02:11:54.124Z,99.90
2022-09-16T02:14:31.100Z,99.90
2022-09-16T02:17:09.927Z,99.90
2022-09-16T02:19:44.845Z,99.90
2022-09-16T02:22:18.123Z,99.90
2022-09-16T02:24:47.863Z,99.90
2022-09-16T02:27:19.631Z,99.90
2022-09-16T02:30:02.746Z,99.90
2022-09-16T02:32:35.881Z,99.90
2022-09-16T02:35:04.372Z,99.90
2022-09-16T02:37:41.704Z,99.90
2022-09-16T02:40:25.500Z,99.90
2022-09-16T02:42:53.003Z,99.90
2022-09-16T02:45:28.851Z,99.90
2022-09-16T02:48:04.635Z,99.90
2022-09-16T02:50:43.714Z,99.90
2022-09-16T02:53:19.500Z,99.90
2022-09-16T02:55:54.525Z,99.90
2022-09-16T02:58:21.898Z,99.90
2022-09-16T03:00:53.814Z,99.90
2022-09-16T03:03:21.928Z,99.90
2022-09-16T03:06:13.874Z,99.90
2022-09-16T03:08:42.642Z,99.90
2022-09-16T03:11:30.517Z,99.90
2022-09-16T03:14:16.635Z,99.90
2022-09-16T03:16:51.807Z,99.90
2022-09-16T03:19:44.254Z,99.90
2022-09-16T03:22:36.722Z,99.90
2022-09-16T03:25:21.980Z,99.90
2022-09-16T03:28:02.051Z,99.90
2022-09-16T03:30:34.816Z,99.90
2022-09-16T03:33:10.192Z,99.90
2022-09-16T03:35:43.724Z,99.90
2022-09-16T03:38:13.563Z,99.90
2022-09-16T03:40:42.877Z,99.90
2022-09-16T03:43:14.498Z,99.90
2022-09-16T03:45:43.020Z,99.90
2022-09-16T03:48:11.138Z,99.90
2022-09-16T03:50:38.546Z,99.90
2022-09-16T03:53:05.863Z,99.90
2022-09-16T03:55:32.904Z,99.90
2022-09-16T03:58:00.301Z,99.90
2022-09-16T04:00:27.582Z,99.90
2022-09-16T04:02:57.130Z,99.90
2022-09-16T04:05:24.461Z,99.90
2022-09-16T04:07:51.669Z,99.90
2022-09-16T04:10:19.300Z,99.90
2022-09-16T04:12:46.746Z,99.90
2022-09-16T04:15:14.021Z,99.90
2022-09-16T04:17:43.510Z,99.90
2022-09-16T04:20:11.082Z,99.90
2022-09-16T04:22:38.389Z,99.90
2022-09-16T04:25:05.830Z,99.90
2022-09-16T04:27:32.992Z,99.90
2022-09-16T04:30:00.208Z,99.90
2022-09-16T04:32:27.464Z,99.90
2022-09-16T04:34:54.594Z,99.90
2022-09-16T04:37:21.914Z,99.90
2022-09-16T04:39:49.145Z,99.90
2022-09-16T04:42:16.258Z,99.90
2022-09-16T04:44:48.348Z,99.90
2022-09-16T04:47:15.551Z,99.90
2022-09-16T04:49:42.692Z,99.90
2022-09-16T04:52:12.566Z,99.90
2022-09-16T04:54:42.133Z,99.90
2022-09-16T04:57:09.407Z,99.90
2022-09-16T04:59:36.811Z,99.90
2022-09-16T05:02:04.014Z,99.90
2022-09-16T05:04:31.052Z,99.90
2022-09-16T05:06:58.278Z,99.90
2022-09-16T05:09:25.452Z,99.90
2022-09-16T05:11:52.897Z,99.90
2022-09-16T05:14:20.176Z,99.90
2022-09-16T05:16:47.557Z,99.90
2022-09-16T05:19:16.436Z,99.90
2022-09-16T05:21:43.719Z,99.90
2022-09-16T05:24:12.487Z,99.90
2022-09-16T05:26:43.406Z,99.90
2022-09-16T05:29:16.652Z,99.90
2022-09-16T05:31:45.701Z,99.90
2022-09-16T05:34:14.194Z,99.90
2022-09-16T05:36:42.477Z,99.90
2022-09-16T05:39:22.730Z,97.90
2022-09-16T05:41:55.722Z,95.00
2022-09-16T05:44:28.108Z,92.60
2022-09-16T05:46:55.803Z,90.30
2022-09-16T05:49:25.364Z,87.20
2022-09-16T05:51:53.915Z,83.50
2022-09-16T05:54:23.507Z,80.80
2022-09-16T05:56:50.754Z,78.10
2022-09-16T05:59:20.996Z,75.80
2022-09-16T06:01:48.482Z,73.10
2022-09-16T06:04:16.022Z,70.40
2022-09-16T06:06:47.025Z,67.50
2022-09-16T06:09:20.357Z,66.70
2022-09-16T06:11:51.982Z,64.20
2022-09-16T06:14:21.871Z,62.20
2022-09-16T06:16:51.007Z,62.30
2022-09-16T06:19:18.996Z,59.80
2022-09-16T06:21:46.884Z,58.70
2022-09-16T06:24:17.899Z,58.40
2022-09-16T06:26:46.391Z,59.90
2022-09-16T06:29:14.876Z,60.70
2022-09-16T06:31:42.570Z,60.40
2022-09-16T06:34:14.909Z,61.10
2022-09-16T06:36:45.141Z,62.40
2022-09-16T06:39:17.395Z,64.50
2022-09-16T06:41:55.051Z,64.10
2022-09-16T06:44:22.117Z,61.10
2022-09-16T06:46:49.311Z,57.80
2022-09-16T06:49:19.323Z,55.40
2022-09-16T06:51:48.705Z,54.90
2022-09-16T06:54:16.258Z,55.20
2022-09-16T06:56:43.753Z,55.20
2022-09-16T06:59:13.366Z,53.90
2022-09-16T07:01:43.048Z,52.60
2022-09-16T07:04:16.471Z,52.00
2022-09-16T07:09:31.539Z,50.20
2022-09-16T07:11:59.123Z,49.70
2022-09-16T07:14:27.640Z,50.00
2022-09-16T07:16:55.733Z,51.80
2022-09-16T07:21:50.922Z,48.50
2022-09-16T07:24:20.899Z,47.30
2022-09-16T07:26:48.617Z,45.80
2022-09-16T07:29:18.322Z,44.90
2022-09-16T07:31:45.709Z,46.30
2022-09-16T07:34:13.552Z,46.80
2022-09-16T07:36:45.937Z,47.20
2022-09-16T07:39:15.823Z,48.40
2022-09-16T07:41:45.080Z,50.00
2022-09-16T07:44:16.549Z,51.50
2022-09-16T07:46:44.240Z,49.00
2022-09-16T07:49:15.280Z,46.40
2022-09-16T07:51:42.942Z,46.70
2022-09-16T07:54:13.429Z,46.10
2022-09-16T07:56:41.545Z,45.10
2022-09-16T07:59:17.590Z,43.80
2022-09-16T08:01:48.941Z,42.70
2022-09-16T08:04:17.760Z,42.30
2022-09-16T08:06:45.497Z,43.40
2022-09-16T08:12:05.321Z,42.00
2022-09-16T08:14:35.212Z,41.80
2022-09-16T08:17:02.407Z,41.40
2022-09-16T08:19:29.816Z,42.80
2022-09-16T08:21:57.490Z,44.60
2022-09-16T08:24:24.614Z,46.00
2022-09-16T08:26:51.967Z,48.40
2022-09-16T08:29:19.236Z,50.10
2022-09-16T08:31:48.832Z,54.10
2022-09-16T08:34:19.913Z,56.70
2022-09-16T08:36:47.511Z,59.30
2022-09-16T08:39:14.513Z,62.30
2022-09-16T08:42:06.216Z,64.50
2022-09-16T08:44:53.221Z,66.60
2022-09-16T08:47:40.611Z,67.30
2022-09-16T08:50:16.205Z,67.20
2022-09-16T08:52:45.134Z,67.80
2022-09-16T08:55:22.430Z,68.70
2022-09-16T08:58:14.885Z,69.70
2022-09-16T09:03:13.746Z,73.20
2022-09-16T09:05:54.998Z,75.30
2022-09-16T09:08:41.292Z,78.40
2022-09-16T09:11:37.775Z,81.10
2022-09-16T09:14:20.719Z,82.80
2022-09-16T09:16:51.327Z,82.90
2022-09-16T09:19:24.750Z,78.50
2022-09-16T09:21:57.622Z,71.30
2022-09-16T09:24:46.922Z,65.70
2022-09-16T09:27:26.007Z,62.10
2022-09-16T09:30:02.527Z,58.70
2022-09-16T09:32:54.711Z,57.00
2022-09-16T09:35:37.520Z,55.00
2022-09-16T09:38:29.455Z,53.80
2022-09-16T09:41:11.492Z,54.30
2022-09-16T09:43:51.839Z,56.90
2022-09-16T09:46:40.317Z,58.60
2022-09-16T09:49:34.664Z,61.20
2022-09-16T09:52:07.797Z,63.90
2022-09-16T09:54:36.009Z,66.50
2022-09-16T09:57:06.251Z,67.50
2022-09-16T10:00:06.552Z,68.50
2022-09-16T10:02:37.697Z,70.00
2022-09-16T10:05:05.133Z,71.00
2022-09-16T10:07:32.351Z,72.10
2022-09-16T13:04:55.962Z,76.10
2022-09-16T13:07:27.471Z,77.00
2022-09-16T13:10:53.912Z,76.40
2022-09-16T13:13:42.099Z,73.80
2022-09-16T13:16:11.993Z,72.80
2022-09-16T13:18:43.846Z,72.10
2022-09-16T13:21:25.920Z,72.40
2022-09-16T13:24:14.859Z,73.20
2022-09-16T13:26:44.258Z,73.50
2022-09-16T13:29:41.317Z,74.20
2022-09-16T13:32:37.151Z,78.70
2022-09-16T13:35:19.561Z,76.10
2022-09-16T13:37:48.542Z,75.50
2022-09-16T13:40:24.095Z,75.60
2022-09-16T13:43:03.694Z,75.60
2022-09-16T13:45:39.543Z,76.20
2022-09-16T13:48:18.632Z,76.10
2022-09-16T13:50:52.017Z,76.10
2022-09-16T13:53:29.677Z,77.30
2022-09-16T13:56:21.742Z,77.60
2022-09-16T13:59:12.896Z,76.40
2022-09-16T14:02:10.725Z,76.30
2022-09-16T14:04:46.709Z,77.30
2022-09-16T14:07:32.852Z,77.30
2022-09-16T14:10:24.609Z,76.60
2022-09-16T14:13:04.534Z,76.20
2022-09-16T14:15:39.147Z,77.50
2022-09-16T14:18:07.154Z,76.70
2022-09-16T14:20:36.694Z,77.20
2022-09-16T14:23:17.662Z,77.40
2022-09-16T14:25:45.013Z,77.50
2022-09-16T14:28:20.859Z,76.60
2022-09-16T14:30:55.003Z,76.50
2022-09-16T14:33:56.861Z,74.60
2022-09-16T14:36:30.265Z,75.40
2022-09-16T14:39:00.734Z,74.90
2022-09-16T14:41:31.005Z,75.80
2022-09-16T14:44:27.212Z,76.80
2022-09-16T14:47:09.254Z,76.60
2022-09-16T14:49:44.401Z,77.50
2022-09-16T15:00:47.399Z,77.30
2022-09-16T15:03:25.525Z,77.80
2022-09-16T15:05:58.162Z,78.50
2022-09-16T15:08:30.328Z,79.40
2022-09-16T15:11:00.900Z,79.90
2022-09-16T15:13:35.326Z,79.60
2022-09-16T15:16:10.228Z,78.60
2022-09-16T15:19:02.271Z,79.00
2022-09-16T15:21:38.672Z,77.70
2022-09-16T15:24:22.528Z,79.40
2022-09-16T15:26:55.457Z,80.50
2022-09-16T15:29:25.216Z,81.30
2022-09-16T15:31:53.034Z,82.30
2022-09-16T15:34:24.139Z,83.30
2022-09-16T15:37:02.558Z,82.80
2022-09-16T15:39:39.370Z,83.10
2022-09-16T15:42:22.652Z,83.20
2022-09-16T15:44:52.003Z,83.20
2022-09-16T15:47:24.008Z,83.90
2022-09-16T15:50:00.430Z,84.90
2022-09-16T15:52:52.884Z,85.60
2022-09-16T15:55:40.278Z,85.60
2022-09-16T15:58:17.612Z,86.30
2022-09-16T16:00:59.140Z,86.40
2022-09-16T16:03:27.105Z,86.80
2022-09-16T16:05:54.838Z,87.10
2022-09-16T16:08:38.607Z,87.00
2022-09-16T16:11:11.226Z,86.50
2022-09-16T16:13:38.645Z,86.50
2022-09-16T16:16:06.497Z,86.70
2022-09-16T16:18:34.342Z,87.10
2022-09-16T16:21:09.580Z,87.50
2022-09-16T16:23:39.999Z,88.00
2022-09-16T16:26:10.676Z,88.90
2022-09-16T16:28:38.146Z,88.70
2022-09-16T16:31:25.693Z,88.90
2022-09-16T16:33:55.933Z,88.80
2022-09-16T16:36:23.248Z,88.80
2022-09-16T16:38:50.647Z,89.40
2022-09-16T16:41:24.509Z,89.80
2022-09-16T16:43:51.827Z,90.00
2022-09-16T16:46:21.514Z,90.20
2022-09-16T16:48:48.665Z,90.60
2022-09-16T16:51:16.083Z,90.90
2022-09-16T16:53:47.973Z,91.20
2022-09-16T16:56:15.739Z,91.70
2022-09-16T16:58:43.208Z,92.10
2022-09-16T17:01:18.740Z,92.30
2022-09-16T17:03:47.462Z,92.70
2022-09-16T17:06:15.242Z,93.10
2022-09-16T17:08:42.717Z,93.40
2022-09-16T17:11:14.700Z,93.50
2022-09-16T17:13:44.290Z,93.90
2022-09-16T17:16:14.906Z,94.30
2022-09-16T17:18:43.135Z,94.40
2022-09-16T17:21:13.376Z,94.40
2022-09-16T17:23:40.756Z,95.10
2022-09-16T17:26:08.929Z,95.60
2022-09-16T17:28:37.558Z,95.60
2022-09-16T17:31:11.875Z,96.20
2022-09-16T17:33:39.204Z,96.70
2022-09-16T17:36:08.224Z,97.30
2022-09-16T17:38:36.276Z,97.70
2022-09-16T17:41:09.554Z,98.20
2022-09-16T17:43:37.957Z,98.50
2022-09-16T17:46:12.159Z,98.90
2022-09-16T17:48:39.584Z,99.00
2022-09-16T17:51:09.077Z,99.20
2022-09-16T17:53:38.419Z,99.70
2022-09-16T17:56:08.674Z,99.90
2022-09-16T17:58:38.090Z,99.90
2022-09-16T18:01:10.880Z,99.90
2022-09-16T18:03:39.810Z,99.90
2022-09-16T18:06:16.038Z,99.90
2022-09-16T18:08:44.104Z,99.90
2022-09-16T18:11:12.687Z,99.90
2022-09-16T18:13:40.488Z,99.90
2022-09-16T18:16:08.369Z,99.90
2022-09-16T18:18:38.834Z,99.90
2022-09-16T18:21:08.080Z,99.90
2022-09-16T18:23:38.064Z,99.90
2022-09-16T18:26:07.048Z,99.90
2022-09-16T18:29:08.139Z,99.90
2022-09-16T18:31:30.165Z,99.90
2022-09-16T18:33:57.270Z,99.90
2022-09-16T18:36:26.072Z,99.90
2022-09-16T18:38:58.187Z,99.90
2022-09-16T18:41:37.104Z,99.90
2022-09-16T18:44:07.861Z,99.90
2022-09-16T18:46:37.116Z,99.90
2022-09-16T18:49:05.436Z,99.90
2022-09-16T18:51:35.484Z,99.90
2022-09-16T18:54:14.580Z,99.90
2022-09-16T18:56:42.248Z,99.90
2022-09-16T18:59:25.212Z,99.90
2022-09-16T19:01:54.387Z,99.90
2022-09-16T19:04:24.716Z,99.90
2022-09-16T19:06:54.821Z,99.90
2022-09-16T19:09:24.023Z,99.90
2022-09-16T19:11:52.383Z,99.90
2022-09-16T19:14:19.754Z,99.90
2022-09-16T19:16:46.989Z,99.90
2022-09-16T19:19:17.891Z,99.90
2022-09-16T19:21:49.207Z,99.90
2022-09-16T19:24:21.901Z,99.90
2022-09-16T19:26:50.993Z,99.90
2022-09-16T19:29:19.329Z,99.90
2022-09-16T19:31:49.020Z,99.90
2022-09-16T19:34:16.787Z,99.90
2022-09-16T19:36:47.372Z,99.90
2022-09-16T19:39:20.639Z,99.90
2022-09-16T19:41:56.946Z,99.90
2022-09-16T19:44:25.788Z,99.90
2022-09-16T19:46:53.998Z,99.90
2022-09-16T19:49:23.720Z,99.90
2022-09-16T19:51:58.409Z,99.90
2022-09-16T19:54:27.887Z,99.90
2022-09-16T19:56:55.787Z,99.90
2022-09-16T19:59:23.428Z,99.90
2022-09-16T20:01:51.160Z,99.90
2022-09-16T20:04:22.506Z,99.90
2022-09-16T20:06:49.827Z,99.90
2022-09-16T20:09:17.256Z,99.90
2022-09-16T20:11:45.913Z,99.90
2022-09-16T20:14:16.175Z,99.90
2022-09-16T20:16:46.639Z,99.90
2022-09-16T20:19:16.327Z,99.90
2022-09-16T20:21:44.011Z,99.90
2022-09-16T20:24:17.588Z,99.90
2022-09-16T20:26:50.468Z,99.90
2022-09-16T20:29:20.892Z,99.90
2022-09-16T20:31:49.952Z,99.90
2022-09-16T20:34:17.397Z,99.90
2022-09-16T20:36:46.002Z,99.90
2022-09-16T20:39:15.707Z,99.90
2022-09-16T20:41:43.277Z,99.90
2022-09-16T20:44:14.744Z,99.90
2022-09-16T20:46:42.254Z,99.90
2022-09-16T20:49:14.545Z,99.90
2022-09-16T20:51:41.922Z,99.90
2022-09-16T20:54:11.243Z,99.90
2022-09-16T20:56:41.937Z,99.90
2022-09-16T20:59:11.651Z,99.90
2022-09-16T21:01:40.354Z,99.90
2022-09-16T21:04:18.884Z,99.90
2022-09-16T21:06:49.189Z,99.90
2022-09-16T21:09:17.936Z,99.90
2022-09-16T21:11:49.764Z,99.90
2022-09-16T21:14:19.428Z,99.90
2022-09-16T21:16:49.832Z,99.90
2022-09-16T21:19:17.086Z,99.90
2022-09-16T21:21:45.284Z,99.90
2022-09-16T21:24:15.519Z,99.90
2022-09-16T21:26:45.975Z,99.90
2022-09-16T21:29:16.030Z,99.90
2022-09-16T21:31:45.428Z,99.90
2022-09-16T21:34:16.213Z,99.90
2022-09-16T21:36:44.024Z,99.90
2022-09-16T21:39:12.715Z,99.90
2022-09-16T21:41:40.105Z,99.90
2022-09-16T21:44:07.350Z,99.90
2022-09-16T21:46:40.015Z,99.90
2022-09-16T21:49:09.945Z,99.90
2022-09-16T21:51:37.833Z,99.90
2022-09-16T21:54:10.044Z,99.90
2022-09-16T21:56:38.607Z,99.90
2022-09-16T21:59:06.714Z,99.90
2022-09-16T22:01:34.979Z,99.90
2022-09-16T22:04:04.813Z,99.90
2022-09-16T22:06:34.919Z,99.90
2022-09-16T22:09:03.375Z,99.90
2022-09-16T22:11:32.307Z,99.90
2022-09-16T22:14:01.082Z,99.90
2022-09-16T22:16:30.892Z,99.90
2022-09-16T22:19:04.424Z,99.90
2022-09-16T22:21:34.449Z,99.90
2022-09-16T22:24:05.249Z,99.90
2022-09-16T22:26:33.005Z,99.90
2022-09-16T22:29:00.359Z,99.90
2022-09-16T22:31:30.270Z,99.90
2022-09-16T22:34:00.495Z,99.90
2022-09-16T22:36:29.589Z,99.90
2022-09-16T22:38:59.677Z,99.90
2022-09-16T22:41:28.847Z,99.90
2022-09-16T22:43:56.236Z,99.90
2022-09-16T22:46:45.140Z,99.90
2022-09-16T22:49:13.313Z,99.90
2022-09-16T22:51:41.006Z,99.90
2022-09-16T22:54:11.188Z,99.90
2022-09-16T22:56:38.561Z,99.90
2022-09-16T22:59:06.711Z,99.90
2022-09-16T23:01:37.827Z,99.90
2022-09-16T23:04:06.996Z,99.90
2022-09-16T23:06:37.275Z,99.90
2022-09-16T23:09:06.698Z,99.90
2022-09-16T23:11:35.199Z,99.90
2022-09-16T23:14:03.117Z,99.90
2022-09-16T23:16:33.099Z,99.90
2022-09-16T23:19:03.009Z,99.90
2022-09-16T23:21:32.608Z,99.90
2022-09-16T23:24:01.713Z,99.90
2022-09-16T23:26:32.434Z,99.90
2022-09-16T23:29:02.143Z,99.90
2022-09-16T23:31:33.051Z,99.90
2022-09-16T23:34:00.495Z,99.90
2022-09-16T23:36:28.713Z,99.90
2022-09-16T23:38:56.175Z,99.90
2022-09-16T23:41:27.053Z,99.90
2022-09-16T23:43:56.162Z,99.90
2022-09-16T23:46:28.388Z,99.90
2022-09-16T23:48:55.829Z,99.90
2022-09-16T23:51:28.043Z,99.90
2022-09-16T23:53:57.469Z,99.90
2022-09-16T23:56:24.790Z,99.90
2022-09-16T23:58:52.096Z,99.90
